Jennings, Florida
Current Conditions -  °F | °C
As of 10:53 AM on Thursday 23 Oct 2014 (Local Time) from KVLD Reporting Station
Clear Clear  
Wind Chill: 64°   Ceiling: Unl
Heat Index: 64°   Visibility: 10mi
Dew Point: 45°   Wind: 5mph
Humidity: 50%   Direction: 80°E
Pressure: 30.12"   Gusts: NA
Location:  30.6°N, 83.1°W
Report Text: KVLD 231453Z 08004KT 10SM CLR 18/07 A3012 RMK AO2 SLP206 60001 T01780072 51011
Loading
Personal Weather Stations






























Interactive Weather Map
Tropical Storm Tracking
New forecast layout! Learn more

10-Day Weather Forecast

Advertisements
Track Severe Weather on mobile